Location Greenlaw, NA, UK

ob NPTOHCUK 181000Z AUTO 34004G07KT CLR CLR 16/15 A2954 RMK SLPNO 

2017.08.18 1000 UTC
Wind from the NNW (344 degrees) at 5 MPH (4 KT) gusting to 8 MPH (7 KT)
Visibility    Mile(s)
Weather: CLR
Sky Conditions  clear
Temperature 60.0 F (16 C)
Dew Point 58.6 F (15 C)
Relative Humidity 95%
Pressure   29.542 in. Hg (1000 hPa)
Rain  0.00 in.
Daily Rain  in.

Station Name  New Palace Theatre Organ Heritage Centre
Longitude, Latitude  -2.463611, 55.706389
Elevation 525
Station URL http://www.nptohc.co.uk/weather
Software Type WeatherDisplay:10.37P